createdAt,value
2018-06-04T00:02:29.923Z,0.00
2018-06-04T00:03:29.892Z,0.00
2018-06-04T00:04:29.849Z,0.00
2018-06-04T00:05:29.775Z,0.00
2018-06-04T00:06:29.659Z,0.00
2018-06-04T00:07:29.577Z,0.00
2018-06-04T00:08:29.472Z,0.00
2018-06-04T00:09:29.481Z,0.00
2018-06-04T00:10:29.299Z,0.00
2018-06-04T00:11:29.293Z,0.00
2018-06-04T00:12:29.136Z,0.00
2018-06-04T00:13:29.141Z,0.00
2018-06-04T00:14:28.980Z,0.00
2018-06-04T00:15:29.006Z,0.00
2018-06-04T00:16:28.855Z,0.00
2018-06-04T00:17:28.821Z,0.00
2018-06-04T00:18:28.691Z,0.00
2018-06-04T00:21:10.953Z,0.00
2018-06-04T00:23:52.968Z,0.00
2018-06-04T00:25:13.857Z,0.00
2018-06-04T00:25:52.763Z,0.00
2018-06-04T00:26:52.739Z,0.00
2018-06-04T00:27:52.615Z,0.00
2018-06-04T00:28:53.608Z,0.00
2018-06-04T00:29:52.460Z,0.00
2018-06-04T00:30:52.498Z,0.00
2018-06-04T00:31:52.299Z,0.00
2018-06-04T00:32:52.268Z,0.00
2018-06-04T00:52:14.856Z,0.00
2018-06-04T00:53:14.689Z,0.00
2018-06-04T00:55:56.959Z,0.00
2018-06-04T00:57:17.838Z,0.00
2018-06-04T00:57:56.772Z,0.00
2018-06-04T01:00:38.947Z,0.00
2018-06-04T01:03:20.929Z,0.00
2018-06-04T01:04:20.938Z,0.00
2018-06-04T01:05:20.779Z,0.00
2018-06-04T01:06:21.815Z,0.00
2018-06-04T01:07:20.651Z,0.00
2018-06-04T01:29:00.470Z,0.00
2018-06-04T01:30:00.431Z,0.00
2018-06-04T01:31:00.310Z,0.00
2018-06-04T01:32:00.334Z,0.00
2018-06-04T01:33:00.167Z,0.00
2018-06-04T01:34:00.139Z,0.00
2018-06-04T01:35:00.005Z,0.00
2018-06-04T01:35:59.968Z,0.00
2018-06-04T01:36:59.890Z,0.00
2018-06-04T01:37:59.905Z,0.00
2018-06-04T01:38:59.720Z,0.00
2018-06-04T01:39:59.673Z,0.00
2018-06-04T01:40:59.515Z,0.00
2018-06-04T01:41:59.484Z,0.00
2018-06-04T01:42:59.391Z,0.00
2018-06-04T01:43:59.391Z,0.00
2018-06-04T01:44:59.204Z,0.00
2018-06-04T01:45:59.195Z,0.00
2018-06-04T01:46:59.053Z,0.00
2018-06-04T01:47:59.050Z,0.00
2018-06-04T01:48:58.897Z,0.00
2018-06-04T01:49:58.924Z,0.00
2018-06-04T01:50:58.741Z,0.00
2018-06-04T01:51:58.733Z,0.00
2018-06-04T01:52:58.618Z,0.00
2018-06-04T01:53:59.609Z,0.00
2018-06-04T01:54:58.465Z,0.00
2018-06-04T01:55:58.491Z,0.00
2018-06-04T01:56:58.311Z,0.00
2018-06-04T01:59:40.524Z,0.00
2018-06-04T02:00:40.466Z,0.00
2018-06-04T02:01:40.285Z,0.00
2018-06-04T02:02:40.273Z,0.00
2018-06-04T02:03:40.136Z,0.00
2018-06-04T02:04:40.184Z,0.00
2018-06-04T02:05:40.015Z,0.00
2018-06-04T02:06:39.988Z,0.00
2018-06-04T02:07:39.816Z,0.00
2018-06-04T02:08:39.794Z,0.00
2018-06-04T02:09:39.672Z,0.00
2018-06-04T02:28:01.992Z,0.00
2018-06-04T02:29:01.953Z,0.00
2018-06-04T02:30:01.844Z,0.00
2018-06-04T02:31:01.811Z,0.00
2018-06-04T02:32:01.666Z,0.00
2018-06-04T02:33:01.664Z,0.00
2018-06-04T02:34:01.494Z,0.00
2018-06-04T02:35:01.507Z,0.00
2018-06-04T02:36:01.359Z,0.00
2018-06-04T02:37:01.322Z,0.00
2018-06-04T02:38:01.180Z,0.00
2018-06-04T02:39:01.192Z,4.00
2018-06-04T02:40:01.031Z,4.00
2018-06-04T02:41:00.999Z,0.00
2018-06-04T02:42:00.907Z,0.00
2018-06-04T02:43:00.902Z,4.00
2018-06-04T02:44:00.705Z,4.00
2018-06-04T02:45:00.737Z,4.00
2018-06-04T02:46:00.571Z,4.00
2018-06-04T02:47:00.529Z,8.00
2018-06-04T02:48:00.404Z,4.00
2018-06-04T02:49:00.437Z,8.00
2018-06-04T02:50:00.347Z,8.00
2018-06-04T02:51:00.276Z,8.00
2018-06-04T02:52:00.122Z,12.00
2018-06-04T02:53:00.052Z,12.00
2018-06-04T02:53:59.923Z,12.00
2018-06-04T02:54:59.963Z,12.00
2018-06-04T02:55:59.775Z,12.00
2018-06-04T02:56:59.805Z,16.00
2018-06-04T02:57:59.620Z,16.00
2018-06-04T02:58:59.580Z,20.00
2018-06-04T02:59:59.464Z,24.00
2018-06-04T03:00:59.494Z,28.00
2018-06-04T03:01:59.333Z,28.00
2018-06-04T03:02:59.298Z,32.00
2018-06-04T03:03:59.144Z,36.00
2018-06-04T03:04:59.111Z,40.00
2018-06-04T03:05:58.983Z,44.00
2018-06-04T03:06:59.019Z,48.00
2018-06-04T03:07:58.852Z,56.00
2018-06-04T03:08:58.831Z,64.00
2018-06-04T03:09:58.674Z,72.00
2018-06-04T03:10:58.637Z,80.00
2018-06-04T03:11:58.600Z,88.00
2018-06-04T03:12:58.583Z,96.00
2018-06-04T03:13:58.355Z,108.00
2018-06-04T03:14:58.354Z,120.00
2018-06-04T03:15:58.199Z,132.00
2018-06-04T03:16:58.162Z,144.00
2018-06-04T03:17:58.066Z,160.00
2018-06-04T03:18:58.084Z,172.00
2018-06-04T03:19:57.952Z,184.00
2018-06-04T03:20:57.886Z,200.00
2018-06-04T03:21:57.754Z,216.00
2018-06-04T03:22:57.727Z,232.00
2018-06-04T03:23:57.602Z,252.00
2018-06-04T03:24:57.627Z,272.00
2018-06-04T03:25:57.419Z,288.00
2018-06-04T03:26:57.409Z,308.00
2018-06-04T03:27:57.281Z,332.00
2018-06-04T03:28:57.220Z,356.00
2018-06-04T03:29:57.110Z,380.00
2018-06-04T03:30:57.198Z,404.00
2018-06-04T03:31:56.978Z,436.00
2018-06-04T03:32:56.971Z,456.00
2018-06-04T03:33:56.798Z,484.00
2018-06-04T03:34:56.803Z,508.00
2018-06-04T03:35:56.636Z,540.00
2018-06-04T03:38:38.500Z,624.00
2018-06-04T03:39:38.451Z,660.00
2018-06-04T03:40:38.327Z,692.00
2018-06-04T03:41:38.358Z,724.00
2018-06-04T03:42:38.181Z,752.00
2018-06-04T03:43:38.215Z,784.00
2018-06-04T03:44:37.998Z,824.00
2018-06-04T03:45:37.988Z,868.00
2018-06-04T03:46:37.851Z,900.00
2018-06-04T03:47:37.904Z,932.00
2018-06-04T03:48:37.710Z,964.00
2018-06-04T03:49:37.714Z,1000.00
2018-06-04T03:50:37.537Z,1036.00
2018-06-04T03:51:37.502Z,1068.00
2018-06-04T03:52:37.389Z,1096.00
2018-06-04T04:07:00.780Z,1520.00
2018-06-04T04:08:00.622Z,1576.00
2018-06-04T04:09:00.550Z,1628.00
2018-06-04T04:10:00.555Z,1676.00
2018-06-04T04:11:00.437Z,1732.00
2018-06-04T04:12:00.288Z,1792.00
2018-06-04T04:13:00.377Z,1844.00
2018-06-04T04:14:00.101Z,1900.00
2018-06-04T04:15:00.091Z,1968.00
2018-06-04T04:15:59.980Z,2052.00
2018-06-04T04:16:59.996Z,2120.00
2018-06-04T04:17:59.793Z,2184.00
2018-06-04T04:20:42.027Z,2328.00
2018-06-04T04:21:42.006Z,2368.00
2018-06-04T04:22:41.823Z,2412.00
2018-06-04T04:23:41.843Z,2452.00
2018-06-04T04:24:41.696Z,2476.00
2018-06-04T04:25:41.653Z,2516.00
2018-06-04T04:26:41.522Z,2572.00
2018-06-04T04:27:41.573Z,2620.00
2018-06-04T04:28:41.355Z,2684.00
2018-06-04T04:31:23.517Z,2844.00
2018-06-04T04:32:23.435Z,2896.00
2018-06-04T04:33:23.335Z,2932.00
2018-06-04T04:34:23.354Z,2968.00
2018-06-04T04:35:23.188Z,3008.00
2018-06-04T04:36:24.228Z,3048.00
2018-06-04T04:37:23.026Z,3092.00
2018-06-04T04:38:23.073Z,3116.00
2018-06-04T04:39:22.877Z,3148.00
2018-06-04T04:40:23.092Z,3188.00
2018-06-04T04:41:22.759Z,3236.00
2018-06-04T04:42:23.315Z,3268.00
2018-06-04T04:43:22.573Z,3320.00
2018-06-04T04:46:04.495Z,3436.00
2018-06-04T04:47:04.540Z,3532.00
2018-06-04T04:48:04.333Z,3612.00
2018-06-04T04:49:04.303Z,3680.00
2018-06-04T04:50:04.182Z,3736.00
2018-06-04T04:51:04.217Z,3796.00
2018-06-04T04:52:04.057Z,3848.00
2018-06-04T04:53:04.023Z,3908.00
2018-06-04T04:54:03.880Z,3980.00
2018-06-04T04:55:03.860Z,4080.00
2018-06-04T04:56:03.721Z,4220.00
2018-06-04T04:57:03.795Z,4372.00
2018-06-04T04:58:03.556Z,4484.00
2018-06-04T04:59:03.552Z,4552.00
2018-06-04T05:00:03.397Z,4528.00
2018-06-04T05:01:03.403Z,4480.00
2018-06-04T05:02:03.304Z,4464.00
2018-06-04T05:04:45.505Z,4424.00
2018-06-04T05:05:45.478Z,4424.00
2018-06-04T05:06:45.347Z,4408.00
2018-06-04T05:07:45.325Z,4380.00
2018-06-04T05:08:45.197Z,4348.00
2018-06-04T05:11:27.505Z,4344.00
2018-06-04T05:12:27.547Z,4336.00
2018-06-04T05:13:27.373Z,4312.00
2018-06-04T05:14:27.326Z,4272.00
2018-06-04T05:15:27.195Z,4252.00
2018-06-04T05:16:27.217Z,4216.00
2018-06-04T05:17:27.042Z,4160.00
2018-06-04T05:18:27.033Z,4132.00
2018-06-04T05:19:26.947Z,4128.00
2018-06-04T05:20:26.937Z,4100.00
2018-06-04T05:21:26.737Z,4112.00
2018-06-04T05:24:09.050Z,4328.00
2018-06-04T05:26:51.018Z,4592.00
2018-06-04T05:27:51.046Z,4672.00
2018-06-04T05:28:50.853Z,4740.00
2018-06-04T05:29:51.908Z,4780.00
2018-06-04T05:30:50.698Z,4820.00
2018-06-04T05:31:50.741Z,4824.00
2018-06-04T05:32:50.545Z,4828.00
2018-06-04T05:33:51.554Z,4820.00
2018-06-04T05:34:50.416Z,4832.00
2018-06-04T05:52:30.539Z,5672.00
2018-06-04T05:53:31.499Z,5668.00
2018-06-04T05:54:30.365Z,5700.00
2018-06-04T05:57:12.536Z,5936.00
2018-06-04T05:58:12.555Z,6116.00
2018-06-04T05:59:12.360Z,6172.00
2018-06-04T06:00:12.368Z,6144.00
2018-06-04T06:01:12.228Z,6108.00
2018-06-04T06:03:54.520Z,6392.00
2018-06-04T06:04:56.540Z,6524.00
2018-06-04T06:05:54.377Z,6624.00
2018-06-04T06:06:54.426Z,6668.00
2018-06-04T06:07:54.224Z,6668.00
2018-06-04T06:08:54.216Z,6696.00
2018-06-04T06:09:54.093Z,6656.00
2018-06-04T06:10:54.092Z,6540.00
2018-06-04T06:11:53.923Z,6596.00
2018-06-04T06:12:53.904Z,6724.00
2018-06-04T06:13:53.769Z,6892.00
2018-06-04T06:16:36.054Z,7264.00
2018-06-04T06:19:18.070Z,7460.00
2018-06-04T06:20:18.030Z,7688.00
2018-06-04T06:21:17.886Z,7876.00
2018-06-04T06:22:18.894Z,8076.00
2018-06-04T06:23:17.710Z,8304.00
2018-06-04T06:26:00.074Z,10308.00
2018-06-04T06:28:42.070Z,12100.00
2018-06-04T06:31:24.069Z,12384.00
2018-06-04T06:32:24.039Z,12468.00
2018-06-04T06:33:23.899Z,12528.00
2018-06-04T06:34:23.879Z,12596.00
2018-06-04T06:35:23.749Z,12772.00
2018-06-04T06:36:23.670Z,13044.00
2018-06-04T06:37:23.599Z,14448.00
2018-06-04T06:38:23.572Z,14912.00
2018-06-04T06:39:23.462Z,13676.00
2018-06-04T06:40:23.475Z,14168.00
2018-06-04T06:41:23.298Z,15520.00
2018-06-04T06:42:23.276Z,15776.00
2018-06-04T06:43:23.187Z,16352.00
2018-06-04T06:44:23.198Z,16992.00
2018-06-04T06:45:23.002Z,16864.00
2018-06-04T06:47:47.550Z,17440.00
2018-06-04T06:48:48.555Z,18080.00
2018-06-04T06:49:47.390Z,18432.00
2018-06-04T06:50:48.464Z,18944.00
2018-06-04T06:51:47.251Z,19136.00
2018-06-04T06:54:29.550Z,18720.00
2018-06-04T06:55:29.579Z,17984.00
2018-06-04T06:57:29.422Z,18112.00
2018-06-04T06:58:29.267Z,18752.00
2018-06-04T06:59:29.254Z,20160.00
2018-06-04T07:00:29.162Z,20704.00
2018-06-04T07:01:29.146Z,20992.00
2018-06-04T07:02:28.985Z,21920.00
2018-06-04T07:03:28.965Z,22624.00
2018-06-04T07:04:28.850Z,22752.00
2018-06-04T07:05:28.890Z,22720.00
2018-06-04T07:06:28.701Z,23232.00
2018-06-04T07:07:28.711Z,23840.00
2018-06-04T07:08:28.559Z,24640.00
2018-06-04T07:09:28.511Z,25152.00
2018-06-04T07:10:28.421Z,25504.00
2018-06-04T07:13:10.556Z,26752.00
2018-06-04T07:14:11.608Z,27168.00
2018-06-04T07:15:10.473Z,27296.00
2018-06-04T07:16:10.540Z,27712.00
2018-06-04T07:17:10.273Z,27776.00
2018-06-04T07:19:52.591Z,27424.00
2018-06-04T07:20:52.561Z,21472.00
2018-06-04T07:21:52.407Z,25376.00
2018-06-04T07:22:52.432Z,26528.00
2018-06-04T07:23:52.282Z,19552.00
2018-06-04T07:24:52.259Z,30432.00
2018-06-04T07:25:52.139Z,23328.00
2018-06-04T07:26:52.148Z,31648.00
2018-06-04T07:27:52.017Z,31136.00
2018-06-04T07:28:52.061Z,31424.00
2018-06-04T07:29:51.919Z,29120.00
2018-06-04T07:32:34.124Z,24320.00
2018-06-04T07:35:20.572Z,29312.00
2018-06-04T07:36:20.594Z,32640.00
2018-06-04T07:37:20.412Z,33216.00
2018-06-04T07:40:02.569Z,36192.00
2018-06-04T07:41:02.609Z,30464.00
2018-06-04T07:42:02.440Z,28992.00
2018-06-04T07:45:46.701Z,34496.00
2018-06-04T07:46:45.485Z,28288.00
2018-06-04T07:47:45.517Z,32544.00
2018-06-04T07:48:45.434Z,34048.00
2018-06-04T07:49:45.339Z,37184.00
2018-06-04T07:50:45.222Z,38976.00
2018-06-04T07:51:45.242Z,33120.00
2018-06-04T07:52:45.084Z,37568.00
2018-06-04T07:55:27.102Z,40896.00
2018-06-04T07:57:51.566Z,41632.00
2018-06-04T08:00:33.607Z,35552.00
2018-06-04T08:01:33.563Z,42464.00
2018-06-04T08:02:33.426Z,45184.00
2018-06-04T08:04:58.098Z,47680.00
2018-06-04T08:23:48.828Z,14988.00
2018-06-04T08:24:48.834Z,38880.00
2018-06-04T08:25:48.687Z,10944.00
2018-06-04T08:28:30.618Z,50656.00
2018-06-04T08:29:30.601Z,51488.00
2018-06-04T08:30:30.475Z,50752.00
2018-06-04T08:31:30.485Z,48800.00
2018-06-04T08:32:30.301Z,44480.00
2018-06-04T08:33:30.383Z,35904.00
2018-06-04T08:34:30.162Z,54336.00
2018-06-04T08:37:12.164Z,57312.00
2018-06-04T08:39:54.075Z,47328.00
2018-06-04T08:40:54.065Z,60800.00
2018-06-04T08:41:53.978Z,60928.00
2018-06-04T08:42:53.982Z,64608.00
2018-06-04T08:43:53.814Z,61920.00
2018-06-04T08:44:53.779Z,59520.00
2018-06-04T08:45:53.700Z,59040.00
2018-06-04T08:46:53.733Z,63488.00
2018-06-04T08:47:53.571Z,17664.00
2018-06-04T08:48:53.601Z,16604.00
2018-06-04T08:49:53.442Z,62016.00
2018-06-04T08:52:35.791Z,66720.00
2018-06-04T08:53:35.619Z,64672.00
2018-06-04T08:54:35.461Z,59040.00
2018-06-04T08:55:35.423Z,55296.00
2018-06-04T08:56:35.333Z,16348.00
2018-06-04T08:57:35.362Z,14144.00
2018-06-04T08:58:35.191Z,61952.00
2018-06-04T08:59:35.264Z,67360.00
2018-06-04T09:00:35.089Z,69728.00
2018-06-04T09:01:35.049Z,66560.00
2018-06-04T09:02:34.948Z,15444.00
2018-06-04T09:03:34.972Z,15780.00
2018-06-04T09:04:34.794Z,55104.00
2018-06-04T09:07:17.097Z,67168.00
2018-06-04T09:08:17.135Z,72480.00
2018-06-04T09:09:16.971Z,74080.00
2018-06-04T09:10:16.990Z,66976.00
2018-06-04T09:11:16.842Z,64032.00
2018-06-04T09:12:16.791Z,53280.00
2018-06-04T09:13:16.734Z,62560.00
2018-06-04T09:15:58.594Z,139904.00
2018-06-04T09:16:58.605Z,75744.00
2018-06-04T09:17:58.506Z,71072.00
2018-06-04T09:18:59.486Z,70944.00
2018-06-04T09:19:58.354Z,72000.00
2018-06-04T09:20:58.327Z,128160.00
2018-06-04T09:21:58.254Z,68384.00
2018-06-04T09:22:58.157Z,72928.00
2018-06-04T09:23:58.281Z,74944.00
2018-06-04T09:24:58.020Z,76224.00
2018-06-04T09:25:57.967Z,112768.00
2018-06-04T09:26:57.958Z,64512.00
2018-06-04T09:27:57.818Z,74880.00
2018-06-04T09:28:57.912Z,76768.00
2018-06-04T09:29:57.712Z,78080.00
2018-06-04T09:30:57.789Z,72096.00
2018-06-04T09:31:57.586Z,45824.00
2018-06-04T09:32:57.576Z,80544.00
2018-06-04T09:33:57.474Z,77440.00
2018-06-04T09:34:57.507Z,72928.00
2018-06-04T09:35:57.317Z,70080.00
2018-06-04T09:36:57.300Z,41056.00
2018-06-04T09:37:57.198Z,17440.00
2018-06-04T09:38:57.257Z,60448.00
2018-06-04T09:39:57.085Z,20544.00
2018-06-04T09:42:39.109Z,81920.00
2018-06-04T09:43:39.212Z,82048.00
2018-06-04T09:44:38.977Z,2848.00
2018-06-04T09:45:39.060Z,14496.00
2018-06-04T09:46:38.845Z,82720.00
2018-06-04T09:47:38.850Z,0.00
2018-06-04T09:48:38.823Z,83968.00
2018-06-04T09:51:20.610Z,80800.00
2018-06-04T09:52:20.672Z,82816.00
2018-06-04T09:53:20.474Z,78112.00
2018-06-04T09:54:20.483Z,77024.00
2018-06-04T09:55:20.356Z,81472.00
2018-06-04T09:56:20.426Z,81920.00
2018-06-04T09:57:20.232Z,84416.00
2018-06-04T09:58:20.177Z,39008.00
2018-06-04T09:59:20.180Z,143552.00
2018-06-04T10:02:02.138Z,85536.00
2018-06-04T10:03:02.212Z,83872.00
2018-06-04T10:04:01.987Z,83840.00
2018-06-04T10:05:03.090Z,84160.00
2018-06-04T10:06:01.863Z,61888.00
2018-06-04T10:07:01.920Z,17792.00
2018-06-04T10:08:01.738Z,17856.00
2018-06-04T10:10:43.807Z,88800.00
2018-06-04T10:11:43.676Z,89152.00
2018-06-04T10:12:43.494Z,86336.00
2018-06-04T10:13:43.441Z,82560.00
2018-06-04T10:14:43.398Z,86464.00
2018-06-04T10:15:43.329Z,88640.00
2018-06-04T10:16:43.238Z,89120.00
2018-06-04T10:17:43.274Z,87936.00
2018-06-04T10:18:43.112Z,89856.00
2018-06-04T10:19:43.176Z,87008.00
2018-06-04T10:20:42.980Z,33568.00
2018-06-04T10:21:42.919Z,44288.00
2018-06-04T10:22:42.883Z,93792.00
2018-06-04T10:23:42.811Z,18816.00
2018-06-04T10:24:42.735Z,57824.00
2018-06-04T10:25:43.689Z,0.00
2018-06-04T10:26:42.607Z,92288.00
2018-06-04T10:27:42.595Z,96448.00
2018-06-04T10:28:42.477Z,97088.00
2018-06-04T10:29:42.496Z,92032.00
2018-06-04T10:30:42.395Z,91136.00
2018-06-04T10:31:42.411Z,48224.00
2018-06-04T10:32:42.224Z,94464.00
2018-06-04T10:33:42.229Z,19616.00
2018-06-04T10:34:42.187Z,14984.00
2018-06-04T10:35:42.068Z,15904.00
2018-06-04T10:36:41.969Z,74208.00
2018-06-04T10:37:42.030Z,76096.00
2018-06-04T10:38:41.963Z,16312.00
2018-06-04T10:39:41.822Z,14296.00
2018-06-04T10:40:41.766Z,15308.00
2018-06-04T10:43:23.630Z,98624.00
2018-06-04T10:46:05.667Z,94944.00
2018-06-04T10:47:05.670Z,99200.00
2018-06-04T10:48:05.516Z,100512.00
2018-06-04T10:49:05.458Z,100032.00
2018-06-04T10:50:05.378Z,97408.00
2018-06-04T10:51:05.418Z,96704.00
2018-06-04T10:52:05.247Z,97376.00
2018-06-04T10:53:05.218Z,94464.00
2018-06-04T10:54:05.117Z,96096.00
2018-06-04T10:55:05.099Z,94912.00
2018-06-04T10:56:05.011Z,98176.00
2018-06-04T10:57:05.985Z,98304.00
2018-06-04T10:58:04.875Z,97088.00
2018-06-04T10:59:04.912Z,101600.00
2018-06-04T11:00:04.752Z,100480.00
2018-06-04T11:01:04.737Z,96448.00
2018-06-04T11:02:04.692Z,95520.00
2018-06-04T11:03:04.633Z,95552.00
2018-06-04T11:04:04.557Z,98048.00
2018-06-04T11:05:04.545Z,99904.00
2018-06-04T11:06:04.385Z,97632.00
2018-06-04T11:07:04.384Z,96960.00
2018-06-04T11:08:04.246Z,94624.00
2018-06-04T11:09:04.265Z,52928.00
2018-06-04T11:10:04.118Z,23776.00
2018-06-04T11:11:04.167Z,39136.00
2018-06-04T11:12:04.017Z,89888.00
2018-06-04T11:14:46.181Z,98240.00
2018-06-04T11:15:46.171Z,95616.00
2018-06-04T11:16:46.055Z,98048.00
2018-06-04T11:17:46.004Z,99808.00
2018-06-04T11:18:45.930Z,95200.00
2018-06-04T11:19:45.891Z,93152.00
2018-06-04T11:20:45.765Z,95584.00
2018-06-04T11:21:45.709Z,100160.00
2018-06-04T11:22:45.671Z,100736.00
2018-06-04T11:23:45.639Z,98208.00
2018-06-04T11:24:45.515Z,100352.00
2018-06-04T11:27:27.688Z,94144.00
2018-06-04T11:28:27.609Z,97184.00
2018-06-04T11:29:27.513Z,93248.00
2018-06-04T11:30:27.554Z,91712.00
2018-06-04T11:31:27.409Z,88160.00
2018-06-04T11:32:27.530Z,93824.00
2018-06-04T11:33:27.293Z,96448.00
2018-06-04T11:34:27.264Z,97856.00
2018-06-04T11:35:27.143Z,101696.00
2018-06-04T11:36:27.170Z,95680.00
2018-06-04T11:37:27.042Z,94048.00
2018-06-04T11:38:27.162Z,95552.00
2018-06-04T11:39:26.902Z,98432.00
2018-06-04T11:40:26.897Z,98400.00
2018-06-04T11:41:26.783Z,95040.00
2018-06-04T11:42:26.798Z,29536.00
2018-06-04T11:43:26.685Z,20064.00
2018-06-04T11:44:26.743Z,59200.00
2018-06-04T11:45:26.548Z,94400.00
2018-06-04T11:46:26.535Z,95200.00
2018-06-04T11:47:26.409Z,99840.00
2018-06-04T11:48:26.473Z,98336.00
2018-06-04T11:49:26.298Z,99200.00
2018-06-04T11:50:26.345Z,98112.00
2018-06-04T11:51:26.188Z,70592.00
2018-06-04T11:52:26.140Z,24832.00
2018-06-04T11:53:26.085Z,12332.00
2018-06-04T11:54:26.071Z,12404.00
2018-06-04T11:55:25.916Z,12580.00
2018-06-04T11:56:25.992Z,12628.00
2018-06-04T11:57:25.786Z,12528.00
2018-06-04T11:58:25.920Z,13648.00
2018-06-04T11:59:25.658Z,15044.00
2018-06-04T12:00:25.616Z,15900.00
2018-06-04T12:01:25.540Z,16568.00
2018-06-04T12:02:25.521Z,15472.00
2018-06-04T12:03:25.400Z,14856.00
2018-06-04T12:04:26.470Z,13920.00
2018-06-04T12:05:25.295Z,14264.00
2018-06-04T12:08:07.153Z,14964.00
2018-06-04T12:09:07.125Z,15388.00
2018-06-04T12:10:07.019Z,15420.00
2018-06-04T12:11:07.029Z,16300.00
2018-06-04T12:12:06.935Z,16664.00
2018-06-04T12:14:49.199Z,17488.00
2018-06-04T12:15:49.144Z,18208.00
2018-06-04T12:16:49.092Z,18496.00
2018-06-04T12:17:48.973Z,18944.00
2018-06-04T12:18:48.883Z,19104.00
2018-06-04T12:19:48.896Z,18304.00
2018-06-04T12:20:48.741Z,17504.00
2018-06-04T12:23:30.711Z,15700.00
2018-06-04T12:24:30.741Z,14072.00
2018-06-04T12:25:30.594Z,12356.00
2018-06-04T12:26:30.568Z,10452.00
2018-06-04T12:27:30.428Z,9308.00
2018-06-04T12:28:30.339Z,9032.00
2018-06-04T12:29:30.379Z,8948.00
2018-06-04T12:30:30.190Z,9056.00
2018-06-04T12:31:30.121Z,9624.00
2018-06-04T12:34:12.171Z,11356.00
2018-06-04T12:35:12.372Z,12796.00
2018-06-04T12:36:12.029Z,13960.00
2018-06-04T12:37:12.023Z,14336.00
2018-06-04T12:38:11.980Z,14660.00
2018-06-04T12:40:54.218Z,14024.00
2018-06-04T12:41:54.303Z,13648.00
2018-06-04T12:42:54.029Z,13252.00
2018-06-04T12:43:54.037Z,12116.00
2018-06-04T12:44:53.944Z,11316.00
2018-06-04T12:45:53.892Z,10340.00
2018-06-04T12:46:53.805Z,9608.00
2018-06-04T12:49:35.753Z,9144.00
2018-06-04T12:50:35.792Z,9072.00
2018-06-04T12:51:35.627Z,9144.00
2018-06-04T12:52:35.581Z,9256.00
2018-06-04T12:53:35.394Z,9548.00
2018-06-04T12:54:35.367Z,9972.00
2018-06-04T12:55:35.285Z,10452.00
2018-06-04T12:56:35.335Z,11108.00
2018-06-04T12:57:35.102Z,11300.00
2018-06-04T13:00:17.213Z,12196.00
2018-06-04T13:01:18.265Z,12468.00
2018-06-04T13:02:17.044Z,12464.00
2018-06-04T13:04:59.303Z,12276.00
2018-06-04T13:07:41.225Z,13364.00
2018-06-04T13:10:23.270Z,8900.00
2018-06-04T13:11:23.279Z,8264.00
2018-06-04T13:12:23.047Z,8208.00
2018-06-04T13:13:23.003Z,8600.00
2018-06-04T13:14:22.908Z,9240.00
2018-06-04T13:15:22.933Z,9576.00
2018-06-04T13:16:22.798Z,9920.00
2018-06-04T13:17:22.735Z,9804.00
2018-06-04T13:18:22.615Z,9820.00
2018-06-04T13:21:04.790Z,11032.00
2018-06-04T13:22:04.763Z,11612.00
2018-06-04T13:23:04.561Z,12016.00
2018-06-04T13:24:04.554Z,12052.00
2018-06-04T13:25:04.400Z,11956.00
2018-06-04T13:26:04.392Z,11516.00
2018-06-04T13:27:04.307Z,10516.00
2018-06-04T13:28:04.259Z,9580.00
2018-06-04T13:29:04.194Z,8952.00
2018-06-04T13:30:05.231Z,8608.00
2018-06-04T13:31:03.971Z,8224.00
2018-06-04T13:32:04.016Z,7900.00
2018-06-04T13:33:03.831Z,7656.00
2018-06-04T13:34:03.893Z,7320.00
2018-06-04T13:35:03.715Z,7088.00
2018-06-04T13:37:45.714Z,7072.00
2018-06-04T13:38:45.710Z,7212.00
2018-06-04T13:39:45.545Z,7640.00
2018-06-04T13:40:45.605Z,7980.00
2018-06-04T13:41:45.512Z,8924.00
2018-06-04T13:42:45.482Z,9832.00
2018-06-04T13:43:45.316Z,10376.00
2018-06-04T13:44:45.227Z,10580.00
2018-06-04T13:45:45.121Z,9816.00
2018-06-04T13:46:45.186Z,9320.00
2018-06-04T13:47:45.034Z,8780.00
2018-06-04T13:48:44.955Z,8764.00
2018-06-04T13:49:44.830Z,9224.00
2018-06-04T13:50:44.796Z,9236.00
2018-06-04T13:51:44.701Z,8928.00
2018-06-04T13:52:44.689Z,8844.00
2018-06-04T13:53:44.566Z,8280.00
2018-06-04T13:56:26.702Z,7064.00
2018-06-04T13:57:26.672Z,7164.00
2018-06-04T13:58:26.578Z,6928.00
2018-06-04T14:01:08.692Z,6908.00
2018-06-04T14:03:50.749Z,7280.00
2018-06-04T14:06:32.708Z,7944.00
2018-06-04T14:07:32.653Z,8248.00
2018-06-04T14:08:32.616Z,8580.00
2018-06-04T14:09:32.590Z,8872.00
2018-06-04T14:10:32.418Z,9276.00
2018-06-04T14:11:32.406Z,9812.00
2018-06-04T14:12:32.268Z,10132.00
2018-06-04T14:13:33.298Z,10428.00
2018-06-04T14:14:32.132Z,10652.00
2018-06-04T14:17:14.223Z,11644.00
2018-06-04T14:18:14.265Z,11708.00
2018-06-04T14:19:14.085Z,11816.00
2018-06-04T14:20:14.063Z,11760.00
2018-06-04T14:21:13.951Z,11612.00
2018-06-04T14:22:13.980Z,10992.00
2018-06-04T14:23:13.785Z,10332.00
2018-06-04T14:24:13.755Z,9960.00
2018-06-04T14:25:13.648Z,9988.00
2018-06-04T14:26:13.690Z,10208.00
2018-06-04T14:27:13.502Z,10172.00
2018-06-04T14:29:55.743Z,8956.00
2018-06-04T14:30:55.702Z,7788.00
2018-06-04T14:31:55.569Z,7264.00
2018-06-04T14:32:55.599Z,6804.00
2018-06-04T14:33:55.444Z,6480.00
2018-06-04T14:34:55.413Z,6452.00
2018-06-04T14:35:55.287Z,6368.00
2018-06-04T14:36:55.305Z,6436.00
2018-06-04T14:37:55.153Z,6572.00
2018-06-04T14:38:55.103Z,6680.00
2018-06-04T14:39:55.014Z,6476.00
2018-06-04T14:40:55.056Z,6212.00
2018-06-04T14:41:54.872Z,6056.00
2018-06-04T14:42:54.841Z,5984.00
2018-06-04T14:43:54.724Z,5728.00
2018-06-04T14:44:54.730Z,5396.00
2018-06-04T14:45:54.594Z,5136.00
2018-06-04T14:46:54.546Z,4804.00
2018-06-04T14:47:54.446Z,4432.00
2018-06-04T14:48:54.444Z,4300.00
2018-06-04T14:49:54.271Z,4336.00
2018-06-04T14:50:54.295Z,4388.00
2018-06-04T14:51:54.133Z,4548.00
2018-06-04T14:54:36.227Z,5108.00
2018-06-04T14:55:37.228Z,5184.00
2018-06-04T14:56:36.107Z,5252.00
2018-06-04T14:57:36.094Z,5180.00
2018-06-04T14:58:35.963Z,5116.00
2018-06-04T15:01:18.275Z,5172.00
2018-06-04T15:02:18.188Z,5200.00
2018-06-04T15:03:18.090Z,5264.00
2018-06-04T15:04:18.146Z,5336.00
2018-06-04T15:05:17.953Z,5424.00
2018-06-04T15:06:18.999Z,5448.00
2018-06-04T15:07:17.779Z,5360.00
2018-06-04T15:08:17.837Z,5392.00
2018-06-04T15:09:17.635Z,5432.00
2018-06-04T15:11:59.766Z,5576.00
2018-06-04T15:14:41.722Z,5384.00
2018-06-04T15:15:41.729Z,5256.00
2018-06-04T15:16:41.627Z,5084.00
2018-06-04T15:17:41.541Z,4952.00
2018-06-04T15:18:41.437Z,4908.00
2018-06-04T15:19:41.458Z,4932.00
2018-06-04T15:20:41.294Z,5032.00
2018-06-04T15:21:41.292Z,5328.00
2018-06-04T15:22:41.164Z,5320.00
2018-06-04T15:23:41.202Z,5324.00
2018-06-04T15:24:40.990Z,5292.00
2018-06-04T15:27:23.257Z,5316.00
2018-06-04T15:28:23.283Z,5416.00
2018-06-04T15:29:23.081Z,5608.00
2018-06-04T15:30:23.093Z,5796.00
2018-06-04T15:31:22.935Z,6112.00
2018-06-04T15:32:22.964Z,6512.00
2018-06-04T15:33:22.802Z,7216.00
2018-06-04T15:34:22.782Z,7564.00
2018-06-04T15:35:22.661Z,7468.00
2018-06-04T15:36:22.729Z,7008.00
2018-06-04T15:37:22.527Z,6248.00
2018-06-04T15:38:22.464Z,5600.00
2018-06-04T15:39:22.369Z,5112.00
2018-06-04T15:40:22.344Z,4964.00
2018-06-04T15:41:22.223Z,4944.00
2018-06-04T15:44:04.277Z,4772.00
2018-06-04T15:45:04.212Z,4592.00
2018-06-04T15:46:04.125Z,4460.00
2018-06-04T15:47:04.064Z,4344.00
2018-06-04T15:48:04.004Z,4396.00
2018-06-04T15:49:03.959Z,4420.00
2018-06-04T15:50:03.845Z,4600.00
2018-06-04T15:51:03.871Z,4676.00
2018-06-04T15:52:03.656Z,4748.00
2018-06-04T15:53:03.655Z,4764.00
2018-06-04T15:54:03.526Z,4736.00
2018-06-04T15:55:03.592Z,4720.00